sensor_id;sensor_type;location;lat;lon;timestamp;temperature;humidity
12504;DHT22;6316;48.118;-1.690;2023-07-16T00:00:15;17.40;97.20
12504;DHT22;6316;48.118;-1.690;2023-07-16T00:02:43;17.40;97.30
12504;DHT22;6316;48.118;-1.690;2023-07-16T00:05:09;17.40;97.30
12504;DHT22;6316;48.118;-1.690;2023-07-16T00:07:35;17.40;97.30
12504;DHT22;6316;48.118;-1.690;2023-07-16T00:10:00;17.40;97.30
12504;DHT22;6316;48.118;-1.690;2023-07-16T00:12:26;17.40;97.40
12504;DHT22;6316;48.118;-1.690;2023-07-16T00:14:52;17.40;97.40
12504;DHT22;6316;48.118;-1.690;2023-07-16T00:17:17;17.30;97.40
12504;DHT22;6316;48.118;-1.690;2023-07-16T00:19:43;17.30;97.40
12504;DHT22;6316;48.118;-1.690;2023-07-16T00:22:09;17.30;97.40
12504;DHT22;6316;48.118;-1.690;2023-07-16T00:24:34;17.30;97.50
12504;DHT22;6316;48.118;-1.690;2023-07-16T00:27:00;17.30;97.50
12504;DHT22;6316;48.118;-1.690;2023-07-16T00:29:25;17.30;97.50
12504;DHT22;6316;48.118;-1.690;2023-07-16T00:31:51;17.30;97.50
12504;DHT22;6316;48.118;-1.690;2023-07-16T00:34:17;17.20;97.50
12504;DHT22;6316;48.118;-1.690;2023-07-16T00:36:42;17.20;97.60
12504;DHT22;6316;48.118;-1.690;2023-07-16T00:39:08;17.20;97.90
12504;DHT22;6316;48.118;-1.690;2023-07-16T00:41:34;17.20;97.60
12504;DHT22;6316;48.118;-1.690;2023-07-16T00:44:00;17.20;97.60
12504;DHT22;6316;48.118;-1.690;2023-07-16T00:46:25;17.20;97.70
12504;DHT22;6316;48.118;-1.690;2023-07-16T00:48:51;17.10;97.70
12504;DHT22;6316;48.118;-1.690;2023-07-16T00:51:18;17.10;97.70
12504;DHT22;6316;48.118;-1.690;2023-07-16T00:53:45;17.10;97.70
12504;DHT22;6316;48.118;-1.690;2023-07-16T00:56:11;17.10;97.80
12504;DHT22;6316;48.118;-1.690;2023-07-16T00:58:41;17.10;97.80
12504;DHT22;6316;48.118;-1.690;2023-07-16T01:01:06;17.10;97.80
12504;DHT22;6316;48.118;-1.690;2023-07-16T01:03:32;17.10;97.90
12504;DHT22;6316;48.118;-1.690;2023-07-16T01:08:42;17.00;97.90
12504;DHT22;6316;48.118;-1.690;2023-07-16T01:11:10;17.00;97.90
12504;DHT22;6316;48.118;-1.690;2023-07-16T01:13:36;17.00;97.90
12504;DHT22;6316;48.118;-1.690;2023-07-16T01:16:03;17.00;98.00
12504;DHT22;6316;48.118;-1.690;2023-07-16T01:18:28;17.00;98.00
12504;DHT22;6316;48.118;-1.690;2023-07-16T01:20:54;17.00;98.00
12504;DHT22;6316;48.118;-1.690;2023-07-16T01:23:56;17.00;98.10
12504;DHT22;6316;48.118;-1.690;2023-07-16T01:29:29;16.90;98.10
12504;DHT22;6316;48.118;-1.690;2023-07-16T01:31:59;16.90;98.10
12504;DHT22;6316;48.118;-1.690;2023-07-16T01:34:28;16.90;98.10
12504;DHT22;6316;48.118;-1.690;2023-07-16T01:36:54;16.90;98.20
12504;DHT22;6316;48.118;-1.690;2023-07-16T01:39:21;16.90;98.20
12504;DHT22;6316;48.118;-1.690;2023-07-16T01:41:47;16.90;98.30
12504;DHT22;6316;48.118;-1.690;2023-07-16T01:44:12;16.90;98.30
12504;DHT22;6316;48.118;-1.690;2023-07-16T01:46:38;16.90;98.30
12504;DHT22;6316;48.118;-1.690;2023-07-16T01:49:04;16.90;98.30
12504;DHT22;6316;48.118;-1.690;2023-07-16T01:51:29;16.90;98.30
12504;DHT22;6316;48.118;-1.690;2023-07-16T01:53:55;16.90;98.30
12504;DHT22;6316;48.118;-1.690;2023-07-16T01:56:21;16.80;98.30
12504;DHT22;6316;48.118;-1.690;2023-07-16T01:58:47;16.80;98.40
12504;DHT22;6316;48.118;-1.690;2023-07-16T02:01:12;16.80;98.40
12504;DHT22;6316;48.118;-1.690;2023-07-16T02:03:38;16.80;98.40
12504;DHT22;6316;48.118;-1.690;2023-07-16T02:06:03;16.80;98.40
12504;DHT22;6316;48.118;-1.690;2023-07-16T02:08:29;16.80;98.50
12504;DHT22;6316;48.118;-1.690;2023-07-16T02:10:55;16.80;98.50
12504;DHT22;6316;48.118;-1.690;2023-07-16T02:13:20;16.80;98.50
12504;DHT22;6316;48.118;-1.690;2023-07-16T02:15:46;16.80;98.60
12504;DHT22;6316;48.118;-1.690;2023-07-16T02:18:11;16.80;98.60
12504;DHT22;6316;48.118;-1.690;2023-07-16T02:20:37;16.70;98.60
12504;DHT22;6316;48.118;-1.690;2023-07-16T02:23:03;16.70;98.60
12504;DHT22;6316;48.118;-1.690;2023-07-16T02:25:29;16.70;98.60
12504;DHT22;6316;48.118;-1.690;2023-07-16T02:27:54;16.70;98.60
12504;DHT22;6316;48.118;-1.690;2023-07-16T02:30:20;16.70;98.60
12504;DHT22;6316;48.118;-1.690;2023-07-16T02:32:46;16.70;98.70
12504;DHT22;6316;48.118;-1.690;2023-07-16T02:35:11;16.70;98.70
12504;DHT22;6316;48.118;-1.690;2023-07-16T02:37:37;16.70;98.70
12504;DHT22;6316;48.118;-1.690;2023-07-16T02:40:03;16.60;98.70
12504;DHT22;6316;48.118;-1.690;2023-07-16T02:42:29;16.60;98.70
12504;DHT22;6316;48.118;-1.690;2023-07-16T02:44:55;16.60;98.80
12504;DHT22;6316;48.118;-1.690;2023-07-16T02:47:20;16.60;98.80
12504;DHT22;6316;48.118;-1.690;2023-07-16T02:49:46;16.60;98.80
12504;DHT22;6316;48.118;-1.690;2023-07-16T02:52:12;16.60;98.80
12504;DHT22;6316;48.118;-1.690;2023-07-16T02:54:37;16.60;99.20
12504;DHT22;6316;48.118;-1.690;2023-07-16T02:57:04;16.60;98.90
12504;DHT22;6316;48.118;-1.690;2023-07-16T02:59:30;16.60;98.90
12504;DHT22;6316;48.118;-1.690;2023-07-16T03:01:56;16.60;98.90
12504;DHT22;6316;48.118;-1.690;2023-07-16T03:04:22;16.50;98.90
12504;DHT22;6316;48.118;-1.690;2023-07-16T03:06:47;16.50;99.00
12504;DHT22;6316;48.118;-1.690;2023-07-16T03:09:13;16.50;99.00
12504;DHT22;6316;48.118;-1.690;2023-07-16T03:11:39;16.50;99.00
12504;DHT22;6316;48.118;-1.690;2023-07-16T03:14:04;16.50;99.00
12504;DHT22;6316;48.118;-1.690;2023-07-16T03:16:30;16.50;99.00
12504;DHT22;6316;48.118;-1.690;2023-07-16T03:18:55;16.50;99.10
12504;DHT22;6316;48.118;-1.690;2023-07-16T03:21:21;16.50;99.10
12504;DHT22;6316;48.118;-1.690;2023-07-16T03:23:47;16.50;99.10
12504;DHT22;6316;48.118;-1.690;2023-07-16T03:26:12;16.50;99.20
12504;DHT22;6316;48.118;-1.690;2023-07-16T03:28:38;16.50;99.20
12504;DHT22;6316;48.118;-1.690;2023-07-16T03:31:04;16.50;99.20
12504;DHT22;6316;48.118;-1.690;2023-07-16T03:33:29;16.50;99.20
12504;DHT22;6316;48.118;-1.690;2023-07-16T03:35:55;16.50;99.20
12504;DHT22;6316;48.118;-1.690;2023-07-16T03:38:21;16.50;99.30
12504;DHT22;6316;48.118;-1.690;2023-07-16T03:40:48;16.40;99.30
12504;DHT22;6316;48.118;-1.690;2023-07-16T03:43:17;16.40;99.30
12504;DHT22;6316;48.118;-1.690;2023-07-16T03:45:43;16.40;99.30
12504;DHT22;6316;48.118;-1.690;2023-07-16T03:48:09;16.40;99.40
12504;DHT22;6316;48.118;-1.690;2023-07-16T03:50:35;16.40;99.40
12504;DHT22;6316;48.118;-1.690;2023-07-16T03:53:01;16.40;99.50
12504;DHT22;6316;48.118;-1.690;2023-07-16T03:55:26;16.40;99.40
12504;DHT22;6316;48.118;-1.690;2023-07-16T03:57:52;16.40;99.40
12504;DHT22;6316;48.118;-1.690;2023-07-16T04:00:18;16.40;99.40
12504;DHT22;6316;48.118;-1.690;2023-07-16T04:02:43;16.40;99.50
12504;DHT22;6316;48.118;-1.690;2023-07-16T04:05:09;16.40;99.50
12504;DHT22;6316;48.118;-1.690;2023-07-16T04:07:35;16.40;99.50
12504;DHT22;6316;48.118;-1.690;2023-07-16T04:10:01;16.40;99.50
12504;DHT22;6316;48.118;-1.690;2023-07-16T04:12:26;16.40;99.50
12504;DHT22;6316;48.118;-1.690;2023-07-16T04:14:57;16.40;99.50
12504;DHT22;6316;48.118;-1.690;2023-07-16T04:17:23;16.40;99.60
12504;DHT22;6316;48.118;-1.690;2023-07-16T04:19:49;16.40;99.60
12504;DHT22;6316;48.118;-1.690;2023-07-16T04:22:14;16.40;99.60
12504;DHT22;6316;48.118;-1.690;2023-07-16T04:24:40;16.30;99.60
12504;DHT22;6316;48.118;-1.690;2023-07-16T04:27:06;16.30;99.60
12504;DHT22;6316;48.118;-1.690;2023-07-16T04:29:31;16.30;99.60
12504;DHT22;6316;48.118;-1.690;2023-07-16T04:31:57;16.30;99.60
12504;DHT22;6316;48.118;-1.690;2023-07-16T04:34:23;16.30;99.60
12504;DHT22;6316;48.118;-1.690;2023-07-16T04:36:48;16.30;99.60
12504;DHT22;6316;48.118;-1.690;2023-07-16T04:39:14;16.30;99.70
12504;DHT22;6316;48.118;-1.690;2023-07-16T04:41:40;16.40;99.70
12504;DHT22;6316;48.118;-1.690;2023-07-16T04:44:05;16.40;99.70
12504;DHT22;6316;48.118;-1.690;2023-07-16T04:46:31;16.40;99.70
12504;DHT22;6316;48.118;-1.690;2023-07-16T04:48:57;16.40;99.70
12504;DHT22;6316;48.118;-1.690;2023-07-16T04:51:22;16.40;99.70
12504;DHT22;6316;48.118;-1.690;2023-07-16T04:53:49;16.40;99.70
12504;DHT22;6316;48.118;-1.690;2023-07-16T04:56:15;16.40;99.70
12504;DHT22;6316;48.118;-1.690;2023-07-16T04:58:42;16.40;99.80
12504;DHT22;6316;48.118;-1.690;2023-07-16T05:01:08;16.40;99.80
12504;DHT22;6316;48.118;-1.690;2023-07-16T05:03:35;16.40;99.80
12504;DHT22;6316;48.118;-1.690;2023-07-16T05:06:02;16.50;99.90
12504;DHT22;6316;48.118;-1.690;2023-07-16T05:08:28;16.50;99.90
12504;DHT22;6316;48.118;-1.690;2023-07-16T05:10:54;16.50;99.90
12504;DHT22;6316;48.118;-1.690;2023-07-16T05:13:19;16.50;99.90
12504;DHT22;6316;48.118;-1.690;2023-07-16T05:15:45;16.60;99.90
12504;DHT22;6316;48.118;-1.690;2023-07-16T05:18:11;16.60;99.90
12504;DHT22;6316;48.118;-1.690;2023-07-16T05:20:36;16.70;99.90
12504;DHT22;6316;48.118;-1.690;2023-07-16T05:23:02;16.70;99.90
12504;DHT22;6316;48.118;-1.690;2023-07-16T05:25:28;16.80;99.90
12504;DHT22;6316;48.118;-1.690;2023-07-16T05:27:54;16.80;99.90
12504;DHT22;6316;48.118;-1.690;2023-07-16T05:30:19;16.90;99.90
12504;DHT22;6316;48.118;-1.690;2023-07-16T05:32:45;16.90;99.90
12504;DHT22;6316;48.118;-1.690;2023-07-16T05:35:11;17.00;99.90
12504;DHT22;6316;48.118;-1.690;2023-07-16T05:37:37;17.00;99.90
12504;DHT22;6316;48.118;-1.690;2023-07-16T05:40:03;17.00;99.90
12504;DHT22;6316;48.118;-1.690;2023-07-16T05:42:29;17.10;99.90
12504;DHT22;6316;48.118;-1.690;2023-07-16T05:44:55;17.10;99.90
12504;DHT22;6316;48.118;-1.690;2023-07-16T05:47:20;17.20;99.90
12504;DHT22;6316;48.118;-1.690;2023-07-16T05:49:46;17.30;99.90
12504;DHT22;6316;48.118;-1.690;2023-07-16T05:52:12;17.30;99.90
12504;DHT22;6316;48.118;-1.690;2023-07-16T05:54:38;17.40;99.90
12504;DHT22;6316;48.118;-1.690;2023-07-16T05:57:04;17.40;99.90
12504;DHT22;6316;48.118;-1.690;2023-07-16T05:59:29;17.50;99.90
12504;DHT22;6316;48.118;-1.690;2023-07-16T06:01:55;17.60;99.90
12504;DHT22;6316;48.118;-1.690;2023-07-16T06:04:23;17.70;99.90
12504;DHT22;6316;48.118;-1.690;2023-07-16T06:06:48;17.80;99.90
12504;DHT22;6316;48.118;-1.690;2023-07-16T06:09:14;18.00;99.90
12504;DHT22;6316;48.118;-1.690;2023-07-16T06:11:45;18.10;99.90
12504;DHT22;6316;48.118;-1.690;2023-07-16T06:14:11;18.20;99.90
12504;DHT22;6316;48.118;-1.690;2023-07-16T06:16:37;18.20;99.90
12504;DHT22;6316;48.118;-1.690;2023-07-16T06:19:02;18.30;99.90
12504;DHT22;6316;48.118;-1.690;2023-07-16T06:21:28;18.40;99.90
12504;DHT22;6316;48.118;-1.690;2023-07-16T06:23:53;18.40;99.90
12504;DHT22;6316;48.118;-1.690;2023-07-16T06:26:19;18.40;99.90
12504;DHT22;6316;48.118;-1.690;2023-07-16T06:28:45;18.50;99.90
12504;DHT22;6316;48.118;-1.690;2023-07-16T06:31:15;18.50;99.90
12504;DHT22;6316;48.118;-1.690;2023-07-16T06:33:40;18.60;99.90
12504;DHT22;6316;48.118;-1.690;2023-07-16T06:36:06;18.80;99.90
12504;DHT22;6316;48.118;-1.690;2023-07-16T06:38:31;18.90;99.90
12504;DHT22;6316;48.118;-1.690;2023-07-16T06:40:57;19.20;99.90
12504;DHT22;6316;48.118;-1.690;2023-07-16T06:43:23;19.50;99.90
12504;DHT22;6316;48.118;-1.690;2023-07-16T06:45:49;19.80;99.90
12504;DHT22;6316;48.118;-1.690;2023-07-16T06:48:16;20.00;99.80
12504;DHT22;6316;48.118;-1.690;2023-07-16T06:50:42;20.10;99.60
12504;DHT22;6316;48.118;-1.690;2023-07-16T06:53:08;20.00;99.60
12504;DHT22;6316;48.118;-1.690;2023-07-16T06:55:33;20.00;99.60
12504;DHT22;6316;48.118;-1.690;2023-07-16T06:58:00;19.90;99.60
12504;DHT22;6316;48.118;-1.690;2023-07-16T07:00:26;19.80;99.60
12504;DHT22;6316;48.118;-1.690;2023-07-16T07:02:52;19.70;99.60
12504;DHT22;6316;48.118;-1.690;2023-07-16T07:05:17;19.60;99.70
12504;DHT22;6316;48.118;-1.690;2023-07-16T07:07:43;19.50;99.70
12504;DHT22;6316;48.118;-1.690;2023-07-16T07:10:11;19.50;99.80
12504;DHT22;6316;48.118;-1.690;2023-07-16T07:12:37;19.50;99.80
12504;DHT22;6316;48.118;-1.690;2023-07-16T07:15:08;19.50;99.80
12504;DHT22;6316;48.118;-1.690;2023-07-16T07:17:33;19.60;99.80
12504;DHT22;6316;48.118;-1.690;2023-07-16T07:20:00;19.60;99.80
12504;DHT22;6316;48.118;-1.690;2023-07-16T07:22:26;19.60;99.90
12504;DHT22;6316;48.118;-1.690;2023-07-16T07:24:51;19.80;99.90
12504;DHT22;6316;48.118;-1.690;2023-07-16T07:27:17;20.00;99.90
12504;DHT22;6316;48.118;-1.690;2023-07-16T07:29:42;20.10;99.80
12504;DHT22;6316;48.118;-1.690;2023-07-16T07:32:08;20.30;99.80
12504;DHT22;6316;48.118;-1.690;2023-07-16T07:34:34;20.40;99.70
12504;DHT22;6316;48.118;-1.690;2023-07-16T07:36:59;20.50;99.60
12504;DHT22;6316;48.118;-1.690;2023-07-16T07:39:25;20.70;99.60
12504;DHT22;6316;48.118;-1.690;2023-07-16T07:41:51;21.10;99.70
12504;DHT22;6316;48.118;-1.690;2023-07-16T07:44:16;21.40;99.50
12504;DHT22;6316;48.118;-1.690;2023-07-16T07:46:42;21.60;99.40
12504;DHT22;6316;48.118;-1.690;2023-07-16T07:49:07;21.90;99.30
12504;DHT22;6316;48.118;-1.690;2023-07-16T07:51:33;22.00;99.10
12504;DHT22;6316;48.118;-1.690;2023-07-16T07:53:59;22.10;99.10
12504;DHT22;6316;48.118;-1.690;2023-07-16T07:56:25;22.40;99.20
12504;DHT22;6316;48.118;-1.690;2023-07-16T07:58:51;22.70;99.00
12504;DHT22;6316;48.118;-1.690;2023-07-16T08:01:16;23.00;98.80
12504;DHT22;6316;48.118;-1.690;2023-07-16T08:03:42;23.10;98.60
12504;DHT22;6316;48.118;-1.690;2023-07-16T08:06:08;23.20;98.60
12504;DHT22;6316;48.118;-1.690;2023-07-16T08:08:33;23.30;98.60
12504;DHT22;6316;48.118;-1.690;2023-07-16T08:10:59;23.20;98.50
12504;DHT22;6316;48.118;-1.690;2023-07-16T08:13:25;23.10;98.80
12504;DHT22;6316;48.118;-1.690;2023-07-16T08:15:50;23.00;98.60
12504;DHT22;6316;48.118;-1.690;2023-07-16T08:18:16;23.30;98.80
12504;DHT22;6316;48.118;-1.690;2023-07-16T08:20:41;24.40;98.90
12504;DHT22;6316;48.118;-1.690;2023-07-16T08:23:07;25.90;98.40
12504;DHT22;6316;48.118;-1.690;2023-07-16T08:25:33;27.20;97.60
12504;DHT22;6316;48.118;-1.690;2023-07-16T08:27:58;27.90;97.00
12504;DHT22;6316;48.118;-1.690;2023-07-16T08:30:24;28.50;96.80
12504;DHT22;6316;48.118;-1.690;2023-07-16T08:32:49;29.20;96.50
12504;DHT22;6316;48.118;-1.690;2023-07-16T08:35:16;30.20;96.10
12504;DHT22;6316;48.118;-1.690;2023-07-16T08:37:43;31.20;95.70
12504;DHT22;6316;48.118;-1.690;2023-07-16T08:40:10;32.00;95.30
12504;DHT22;6316;48.118;-1.690;2023-07-16T08:42:39;32.40;95.30
12504;DHT22;6316;48.118;-1.690;2023-07-16T08:45:06;32.40;94.90
12504;DHT22;6316;48.118;-1.690;2023-07-16T08:47:34;32.20;95.00
12504;DHT22;6316;48.118;-1.690;2023-07-16T08:50:01;31.60;95.00
12504;DHT22;6316;48.118;-1.690;2023-07-16T08:52:27;30.90;95.30
12504;DHT22;6316;48.118;-1.690;2023-07-16T08:54:54;30.30;95.60
12504;DHT22;6316;48.118;-1.690;2023-07-16T08:57:20;30.00;96.00
12504;DHT22;6316;48.118;-1.690;2023-07-16T08:59:50;30.00;96.10
12504;DHT22;6316;48.118;-1.690;2023-07-16T09:02:17;30.10;96.00
12504;DHT22;6316;48.118;-1.690;2023-07-16T09:04:46;30.10;96.00
12504;DHT22;6316;48.118;-1.690;2023-07-16T09:07:11;30.00;95.90
12504;DHT22;6316;48.118;-1.690;2023-07-16T09:09:37;29.60;95.80
12504;DHT22;6316;48.118;-1.690;2023-07-16T09:12:03;29.00;95.90
12504;DHT22;6316;48.118;-1.690;2023-07-16T09:14:29;28.20;96.00
12504;DHT22;6316;48.118;-1.690;2023-07-16T09:16:54;27.70;96.20
12504;DHT22;6316;48.118;-1.690;2023-07-16T09:19:21;27.30;96.50
12504;DHT22;6316;48.118;-1.690;2023-07-16T09:21:50;27.20;96.70
12504;DHT22;6316;48.118;-1.690;2023-07-16T09:24:17;27.20;96.70
12504;DHT22;6316;48.118;-1.690;2023-07-16T09:26:52;27.10;96.60
12504;DHT22;6316;48.118;-1.690;2023-07-16T09:29:19;26.80;96.50
12504;DHT22;6316;48.118;-1.690;2023-07-16T09:34:20;26.10;96.40
12504;DHT22;6316;48.118;-1.690;2023-07-16T09:36:49;25.70;96.50
12504;DHT22;6316;48.118;-1.690;2023-07-16T09:39:17;25.40;96.60
12504;DHT22;6316;48.118;-1.690;2023-07-16T09:41:47;25.10;96.70
12504;DHT22;6316;48.118;-1.690;2023-07-16T09:44:14;24.90;96.80
12504;DHT22;6316;48.118;-1.690;2023-07-16T09:46:41;24.70;96.90
12504;DHT22;6316;48.118;-1.690;2023-07-16T09:49:07;24.60;96.90
12504;DHT22;6316;48.118;-1.690;2023-07-16T09:51:35;24.50;97.00
12504;DHT22;6316;48.118;-1.690;2023-07-16T09:54:01;24.50;97.00
12504;DHT22;6316;48.118;-1.690;2023-07-16T09:56:39;24.50;97.00
12504;DHT22;6316;48.118;-1.690;2023-07-16T09:59:09;24.50;97.00
12504;DHT22;6316;48.118;-1.690;2023-07-16T10:01:37;24.40;96.80
12504;DHT22;6316;48.118;-1.690;2023-07-16T10:04:12;24.40;96.80
12504;DHT22;6316;48.118;-1.690;2023-07-16T10:09:14;24.40;96.80
12504;DHT22;6316;48.118;-1.690;2023-07-16T10:11:40;24.40;96.80
12504;DHT22;6316;48.118;-1.690;2023-07-16T10:14:07;24.50;96.70
12504;DHT22;6316;48.118;-1.690;2023-07-16T10:16:37;24.50;96.70
12504;DHT22;6316;48.118;-1.690;2023-07-16T10:19:04;24.60;96.60
12504;DHT22;6316;48.118;-1.690;2023-07-16T10:21:37;24.60;96.60
12504;DHT22;6316;48.118;-1.690;2023-07-16T10:24:04;24.60;96.50
12504;DHT22;6316;48.118;-1.690;2023-07-16T10:26:30;24.60;96.80
12504;DHT22;6316;48.118;-1.690;2023-07-16T10:28:56;24.50;96.80
12504;DHT22;6316;48.118;-1.690;2023-07-16T10:31:23;24.50;96.50
12504;DHT22;6316;48.118;-1.690;2023-07-16T10:33:58;24.60;96.50
12504;DHT22;6316;48.118;-1.690;2023-07-16T10:36:24;24.60;96.50
12504;DHT22;6316;48.118;-1.690;2023-07-16T10:38:50;24.60;96.50
12504;DHT22;6316;48.118;-1.690;2023-07-16T10:41:16;24.60;96.40
12504;DHT22;6316;48.118;-1.690;2023-07-16T10:43:42;24.60;96.30
12504;DHT22;6316;48.118;-1.690;2023-07-16T10:46:09;24.40;96.20
12504;DHT22;6316;48.118;-1.690;2023-07-16T10:48:34;24.20;96.20
12504;DHT22;6316;48.118;-1.690;2023-07-16T10:51:00;23.80;96.20
12504;DHT22;6316;48.118;-1.690;2023-07-16T10:53:26;23.50;96.30
12504;DHT22;6316;48.118;-1.690;2023-07-16T10:55:51;23.10;96.30
12504;DHT22;6316;48.118;-1.690;2023-07-16T10:58:17;22.80;96.40
12504;DHT22;6316;48.118;-1.690;2023-07-16T11:00:44;22.60;96.60
12504;DHT22;6316;48.118;-1.690;2023-07-16T11:03:10;22.40;96.70
12504;DHT22;6316;48.118;-1.690;2023-07-16T11:05:36;22.40;96.90
12504;DHT22;6316;48.118;-1.690;2023-07-16T11:08:01;22.40;97.00
12504;DHT22;6316;48.118;-1.690;2023-07-16T11:10:30;22.40;97.00
12504;DHT22;6316;48.118;-1.690;2023-07-16T11:12:56;22.50;97.00
12504;DHT22;6316;48.118;-1.690;2023-07-16T11:15:34;22.60;97.10
12504;DHT22;6316;48.118;-1.690;2023-07-16T11:18:01;22.60;97.10
12504;DHT22;6316;48.118;-1.690;2023-07-16T11:20:28;22.80;97.10
12504;DHT22;6316;48.118;-1.690;2023-07-16T11:22:57;22.90;97.10
12504;DHT22;6316;48.118;-1.690;2023-07-16T11:25:24;23.10;97.10
12504;DHT22;6316;48.118;-1.690;2023-07-16T11:27:54;23.20;97.00
12504;DHT22;6316;48.118;-1.690;2023-07-16T11:30:23;23.30;97.00
12504;DHT22;6316;48.118;-1.690;2023-07-16T11:32:49;23.40;97.00
12504;DHT22;6316;48.118;-1.690;2023-07-16T11:35:16;23.50;96.90
12504;DHT22;6316;48.118;-1.690;2023-07-16T11:37:44;23.50;96.90
12504;DHT22;6316;48.118;-1.690;2023-07-16T11:40:14;23.50;96.90
12504;DHT22;6316;48.118;-1.690;2023-07-16T11:42:40;23.50;96.90
12504;DHT22;6316;48.118;-1.690;2023-07-16T11:45:21;23.50;96.90
12504;DHT22;6316;48.118;-1.690;2023-07-16T11:47:53;23.60;97.00
12504;DHT22;6316;48.118;-1.690;2023-07-16T11:50:19;23.60;96.90
12504;DHT22;6316;48.118;-1.690;2023-07-16T11:52:53;23.60;96.90
12504;DHT22;6316;48.118;-1.690;2023-07-16T11:55:19;23.60;96.90
12504;DHT22;6316;48.118;-1.690;2023-07-16T11:57:45;23.70;96.90
12504;DHT22;6316;48.118;-1.690;2023-07-16T12:00:11;23.70;96.90
12504;DHT22;6316;48.118;-1.690;2023-07-16T12:02:37;23.80;96.90
12504;DHT22;6316;48.118;-1.690;2023-07-16T12:05:03;23.90;96.80
12504;DHT22;6316;48.118;-1.690;2023-07-16T12:07:37;24.00;96.80
12504;DHT22;6316;48.118;-1.690;2023-07-16T12:10:07;24.10;96.80
12504;DHT22;6316;48.118;-1.690;2023-07-16T12:12:33;24.20;96.70
12504;DHT22;6316;48.118;-1.690;2023-07-16T12:15:00;24.30;96.70
12504;DHT22;6316;48.118;-1.690;2023-07-16T12:17:25;24.40;96.60
12504;DHT22;6316;48.118;-1.690;2023-07-16T12:19:51;24.30;96.50
12504;DHT22;6316;48.118;-1.690;2023-07-16T12:22:18;24.30;96.50
12504;DHT22;6316;48.118;-1.690;2023-07-16T12:24:44;24.30;96.60
12504;DHT22;6316;48.118;-1.690;2023-07-16T12:27:10;24.30;96.60
12504;DHT22;6316;48.118;-1.690;2023-07-16T12:29:36;24.30;96.50
12504;DHT22;6316;48.118;-1.690;2023-07-16T12:32:01;24.40;96.50
12504;DHT22;6316;48.118;-1.690;2023-07-16T12:34:27;24.50;96.50
12504;DHT22;6316;48.118;-1.690;2023-07-16T12:36:53;24.50;96.40
12504;DHT22;6316;48.118;-1.690;2023-07-16T12:39:20;24.50;96.70
12504;DHT22;6316;48.118;-1.690;2023-07-16T12:41:46;24.50;96.30
12504;DHT22;6316;48.118;-1.690;2023-07-16T12:44:12;24.60;96.30
12504;DHT22;6316;48.118;-1.690;2023-07-16T12:46:37;24.50;96.30
12504;DHT22;6316;48.118;-1.690;2023-07-16T12:49:03;24.50;96.30
12504;DHT22;6316;48.118;-1.690;2023-07-16T12:51:28;24.50;96.30
12504;DHT22;6316;48.118;-1.690;2023-07-16T12:53:54;24.50;96.20
12504;DHT22;6316;48.118;-1.690;2023-07-16T12:56:20;24.40;96.20
12504;DHT22;6316;48.118;-1.690;2023-07-16T12:58:47;24.40;96.20
12504;DHT22;6316;48.118;-1.690;2023-07-16T13:01:13;24.50;96.20
12504;DHT22;6316;48.118;-1.690;2023-07-16T13:03:39;24.50;96.10
12504;DHT22;6316;48.118;-1.690;2023-07-16T13:06:04;24.60;96.00
12504;DHT22;6316;48.118;-1.690;2023-07-16T13:08:30;24.60;95.90
12504;DHT22;6316;48.118;-1.690;2023-07-16T13:10:56;24.60;95.90
12504;DHT22;6316;48.118;-1.690;2023-07-16T13:13:22;24.60;95.80
12504;DHT22;6316;48.118;-1.690;2023-07-16T13:15:48;24.60;95.80
12504;DHT22;6316;48.118;-1.690;2023-07-16T13:18:14;24.60;95.70
12504;DHT22;6316;48.118;-1.690;2023-07-16T13:20:40;24.60;95.70
12504;DHT22;6316;48.118;-1.690;2023-07-16T13:23:05;24.70;95.70
12504;DHT22;6316;48.118;-1.690;2023-07-16T13:25:33;24.80;95.60
12504;DHT22;6316;48.118;-1.690;2023-07-16T13:27:59;24.80;95.50
12504;DHT22;6316;48.118;-1.690;2023-07-16T13:30:25;24.90;95.80
12504;DHT22;6316;48.118;-1.690;2023-07-16T13:32:51;24.90;95.40
12504;DHT22;6316;48.118;-1.690;2023-07-16T13:35:20;24.90;95.30
12504;DHT22;6316;48.118;-1.690;2023-07-16T13:37:46;25.00;95.30
12504;DHT22;6316;48.118;-1.690;2023-07-16T13:40:12;24.90;95.20
12504;DHT22;6316;48.118;-1.690;2023-07-16T13:42:37;24.90;95.20
12504;DHT22;6316;48.118;-1.690;2023-07-16T13:45:04;24.80;95.20
12504;DHT22;6316;48.118;-1.690;2023-07-16T13:47:30;24.80;95.20
12504;DHT22;6316;48.118;-1.690;2023-07-16T13:49:56;24.80;95.10
12504;DHT22;6316;48.118;-1.690;2023-07-16T13:52:22;24.80;95.10
12504;DHT22;6316;48.118;-1.690;2023-07-16T13:54:47;24.80;95.00
12504;DHT22;6316;48.118;-1.690;2023-07-16T13:57:13;24.70;94.90
12504;DHT22;6316;48.118;-1.690;2023-07-16T13:59:39;24.80;94.90
12504;DHT22;6316;48.118;-1.690;2023-07-16T14:02:04;24.80;94.80
12504;DHT22;6316;48.118;-1.690;2023-07-16T14:04:30;24.70;94.80
12504;DHT22;6316;48.118;-1.690;2023-07-16T14:06:56;24.70;94.80
12504;DHT22;6316;48.118;-1.690;2023-07-16T14:09:22;24.80;94.80
12504;DHT22;6316;48.118;-1.690;2023-07-16T14:11:47;24.70;94.70
12504;DHT22;6316;48.118;-1.690;2023-07-16T14:14:21;24.80;94.70
12504;DHT22;6316;48.118;-1.690;2023-07-16T14:16:47;24.80;94.60
12504;DHT22;6316;48.118;-1.690;2023-07-16T14:19:13;24.90;94.60
12504;DHT22;6316;48.118;-1.690;2023-07-16T14:21:39;24.90;94.50
12504;DHT22;6316;48.118;-1.690;2023-07-16T14:24:05;24.90;94.50
12504;DHT22;6316;48.118;-1.690;2023-07-16T14:26:31;24.90;94.50
12504;DHT22;6316;48.118;-1.690;2023-07-16T14:28:57;25.00;94.40
12504;DHT22;6316;48.118;-1.690;2023-07-16T14:31:23;25.00;94.30
12504;DHT22;6316;48.118;-1.690;2023-07-16T14:33:48;24.90;94.20
12504;DHT22;6316;48.118;-1.690;2023-07-16T14:36:14;24.90;94.20
12504;DHT22;6316;48.118;-1.690;2023-07-16T14:38:40;24.80;94.10
12504;DHT22;6316;48.118;-1.690;2023-07-16T14:41:05;24.70;94.10
12504;DHT22;6316;48.118;-1.690;2023-07-16T14:43:33;24.70;94.10
12504;DHT22;6316;48.118;-1.690;2023-07-16T14:45:58;24.70;94.10
12504;DHT22;6316;48.118;-1.690;2023-07-16T14:48:24;24.70;94.10
12504;DHT22;6316;48.118;-1.690;2023-07-16T14:50:52;24.70;94.10
12504;DHT22;6316;48.118;-1.690;2023-07-16T14:53:17;24.70;94.10
12504;DHT22;6316;48.118;-1.690;2023-07-16T14:55:50;24.70;94.00
12504;DHT22;6316;48.118;-1.690;2023-07-16T14:58:18;24.70;94.00
12504;DHT22;6316;48.118;-1.690;2023-07-16T15:00:44;24.80;94.00
12504;DHT22;6316;48.118;-1.690;2023-07-16T15:03:10;24.90;93.90
12504;DHT22;6316;48.118;-1.690;2023-07-16T15:05:36;25.00;93.90
12504;DHT22;6316;48.118;-1.690;2023-07-16T15:08:02;25.00;93.80
12504;DHT22;6316;48.118;-1.690;2023-07-16T15:10:29;25.20;93.80
12504;DHT22;6316;48.118;-1.690;2023-07-16T15:12:55;25.20;93.70
12504;DHT22;6316;48.118;-1.690;2023-07-16T15:15:20;25.20;93.60
12504;DHT22;6316;48.118;-1.690;2023-07-16T15:17:46;25.10;93.60
12504;DHT22;6316;48.118;-1.690;2023-07-16T15:20:12;25.10;93.50
12504;DHT22;6316;48.118;-1.690;2023-07-16T15:22:37;25.00;93.50
12504;DHT22;6316;48.118;-1.690;2023-07-16T15:25:04;24.90;93.50
12504;DHT22;6316;48.118;-1.690;2023-07-16T15:27:30;24.90;93.50
12504;DHT22;6316;48.118;-1.690;2023-07-16T15:29:56;24.80;93.50
12504;DHT22;6316;48.118;-1.690;2023-07-16T15:32:22;24.80;93.50
12504;DHT22;6316;48.118;-1.690;2023-07-16T15:34:47;24.70;93.40